createdAt,value
2023-05-05T00:01:18.556Z,3.93
2023-05-05T00:06:21.885Z,3.40
2023-05-05T00:11:26.456Z,3.27
2023-05-05T00:16:29.857Z,3.50
2023-05-05T00:21:33.144Z,4.20
2023-05-05T00:26:36.685Z,3.23
2023-05-05T00:31:40.143Z,3.57
2023-05-05T00:36:43.567Z,3.47
2023-05-05T00:41:46.771Z,3.60
2023-05-05T00:46:49.934Z,3.60
2023-05-05T00:51:53.347Z,3.53
2023-05-05T00:56:56.692Z,3.30
2023-05-05T01:02:00.420Z,3.30
2023-05-05T01:07:28.261Z,3.37
2023-05-05T01:12:44.499Z,3.33
2023-05-05T01:18:04.572Z,3.43
2023-05-05T01:23:10.370Z,3.33
2023-05-05T01:28:34.801Z,3.53
2023-05-05T01:33:48.001Z,2.90
2023-05-05T01:39:00.117Z,2.73
2023-05-05T01:44:06.665Z,2.77
2023-05-05T01:49:12.083Z,3.03
2023-05-05T01:54:18.133Z,2.90
2023-05-05T01:59:22.175Z,2.67
2023-05-05T02:04:27.188Z,3.17
2023-05-05T02:09:31.551Z,2.80
2023-05-05T02:14:36.226Z,2.63
2023-05-05T02:19:42.449Z,2.70
2023-05-05T02:24:45.806Z,3.17
2023-05-05T02:29:53.301Z,3.30
2023-05-05T02:35:01.362Z,3.33
2023-05-05T02:40:09.130Z,3.70
2023-05-05T02:45:18.783Z,3.33
2023-05-05T02:50:22.103Z,3.77
2023-05-05T02:55:30.077Z,3.50
2023-05-05T03:00:44.243Z,3.63
2023-05-05T03:06:01.388Z,2.97
2023-05-05T03:11:14.564Z,3.73
2023-05-05T03:16:21.313Z,3.90
2023-05-05T03:21:25.440Z,3.77
2023-05-05T03:26:28.817Z,3.23
2023-05-05T03:31:32.233Z,3.80
2023-05-05T03:36:36.471Z,3.50
2023-05-05T03:41:39.654Z,3.97
2023-05-05T03:46:43.304Z,3.33
2023-05-05T03:51:47.489Z,3.17
2023-05-05T03:56:51.079Z,3.47
2023-05-05T04:01:55.314Z,3.30
2023-05-05T04:06:58.554Z,3.60
2023-05-05T04:12:02.070Z,3.80
2023-05-05T04:17:05.665Z,4.30
2023-05-05T04:22:08.905Z,3.93
2023-05-05T04:27:12.230Z,3.50
2023-05-05T04:32:15.545Z,4.00
2023-05-05T04:37:18.786Z,4.13
2023-05-05T04:42:22.167Z,3.40
2023-05-05T04:47:25.494Z,3.10
2023-05-05T04:52:29.042Z,3.40
2023-05-05T04:57:32.670Z,3.60
2023-05-05T05:02:37.992Z,4.10
2023-05-05T05:07:41.703Z,4.27
2023-05-05T05:12:45.110Z,3.40
2023-05-05T05:17:48.431Z,4.13
2023-05-05T05:22:51.703Z,4.10
2023-05-05T05:33:05.478Z,4.20
2023-05-05T05:38:09.182Z,3.67
2023-05-05T05:43:12.726Z,4.00
2023-05-05T05:48:16.088Z,4.23
2023-05-05T05:53:19.498Z,4.30
2023-05-05T05:58:22.825Z,3.53
2023-05-05T06:03:27.187Z,4.23
2023-05-05T06:08:30.847Z,4.20
2023-05-05T06:13:34.610Z,4.10
2023-05-05T06:18:37.939Z,4.27
2023-05-05T06:23:42.580Z,3.93
2023-05-05T06:28:46.099Z,4.40
2023-05-05T06:33:49.891Z,3.50
2023-05-05T06:38:56.754Z,4.27
2023-05-05T06:44:04.873Z,3.70
2023-05-05T06:49:08.135Z,3.60
2023-05-05T06:54:11.766Z,3.63
2023-05-05T06:59:16.183Z,3.67
2023-05-05T07:04:19.553Z,3.33
2023-05-05T07:09:22.932Z,4.20
2023-05-05T07:14:26.751Z,3.87
2023-05-05T07:19:30.086Z,3.93
2023-05-05T07:24:33.848Z,4.00
2023-05-05T07:29:37.207Z,3.90
2023-05-05T07:34:40.800Z,4.83
2023-05-05T07:39:44.025Z,4.77
2023-05-05T07:44:47.343Z,3.93
2023-05-05T07:49:51.485Z,4.53
2023-05-05T07:54:54.820Z,4.90
2023-05-05T07:59:58.089Z,4.97
2023-05-05T08:05:01.476Z,4.50
2023-05-05T08:10:04.955Z,4.63
2023-05-05T08:15:08.893Z,4.97
2023-05-05T08:20:13.172Z,4.50
2023-05-05T08:25:16.806Z,3.93
2023-05-05T08:30:21.904Z,4.07
2023-05-05T08:35:25.099Z,4.60
2023-05-05T08:40:36.854Z,3.57
2023-05-05T08:45:42.446Z,3.67
2023-05-05T08:50:52.478Z,3.53
2023-05-05T08:55:57.045Z,3.53
2023-05-05T09:01:01.898Z,3.40
2023-05-05T09:06:05.523Z,3.70
2023-05-05T09:11:08.700Z,3.03
2023-05-05T09:16:11.973Z,3.70
2023-05-05T09:21:22.812Z,4.13
2023-05-05T09:26:26.014Z,3.67
2023-05-05T09:31:31.335Z,4.30
2023-05-05T09:36:45.296Z,3.87
2023-05-05T09:41:48.605Z,4.20
2023-05-05T09:46:53.310Z,4.17
2023-05-05T09:51:57.856Z,3.80
2023-05-05T09:57:01.955Z,4.37
2023-05-05T10:02:13.483Z,4.13
2023-05-05T10:07:36.411Z,3.97
2023-05-05T10:12:40.603Z,4.13
2023-05-05T10:22:57.953Z,4.43
2023-05-05T10:28:06.459Z,3.37
2023-05-05T10:33:33.242Z,3.40
2023-05-05T10:38:37.859Z,3.47
2023-05-05T10:43:42.290Z,3.13
2023-05-05T10:48:58.065Z,3.13
2023-05-05T10:54:07.313Z,2.70
2023-05-05T10:59:39.430Z,2.97
2023-05-05T11:04:42.805Z,3.13
2023-05-05T11:09:57.082Z,2.97
2023-05-05T11:15:28.308Z,3.10
2023-05-05T11:20:40.519Z,3.30
2023-05-05T11:25:45.075Z,3.37
2023-05-05T11:31:16.087Z,3.77
2023-05-05T11:36:22.568Z,3.87
2023-05-05T11:41:34.574Z,3.27
2023-05-05T11:46:41.294Z,3.53
2023-05-05T11:52:02.397Z,3.33
2023-05-05T11:57:08.306Z,2.83
2023-05-05T12:02:16.475Z,3.60
2023-05-05T12:07:22.120Z,3.77
2023-05-05T12:12:41.885Z,3.67
2023-05-05T12:17:47.783Z,3.77
2023-05-05T12:22:51.182Z,3.87
2023-05-05T12:27:54.404Z,3.70
2023-05-05T12:33:07.851Z,3.70
2023-05-05T12:38:11.978Z,3.93
2023-05-05T12:43:44.529Z,4.13
2023-05-05T12:49:05.377Z,4.00
2023-05-05T12:54:12.578Z,4.80
2023-05-05T12:59:34.357Z,2.87
2023-05-05T13:04:52.880Z,3.13
2023-05-05T13:10:09.577Z,3.50
2023-05-05T13:15:13.572Z,3.17
2023-05-05T13:20:17.423Z,2.90
2023-05-05T13:25:20.668Z,2.50
2023-05-05T13:30:24.106Z,2.67
2023-05-05T13:35:27.715Z,2.67
2023-05-05T13:40:31.296Z,2.37
2023-05-05T13:45:34.561Z,2.57
2023-05-05T13:50:38.327Z,2.60
2023-05-05T13:55:43.253Z,2.80
2023-05-05T14:00:46.449Z,1.93
2023-05-05T14:05:51.380Z,2.17
2023-05-05T14:10:54.736Z,2.13
2023-05-05T14:15:58.920Z,2.50
2023-05-05T14:21:02.198Z,2.40
2023-05-05T14:26:05.735Z,2.10
2023-05-05T14:31:08.986Z,2.23
2023-05-05T14:36:12.270Z,2.10
2023-05-05T14:41:15.557Z,2.37
2023-05-05T14:46:19.337Z,3.53
2023-05-05T14:51:22.541Z,2.00
2023-05-05T14:56:28.707Z,2.50
2023-05-05T15:01:32.009Z,2.57
2023-05-05T15:06:35.460Z,2.23
2023-05-05T15:11:38.683Z,2.87
2023-05-05T15:16:41.981Z,2.17
2023-05-05T15:21:45.125Z,2.20
2023-05-05T15:26:48.952Z,2.00
2023-05-05T15:31:53.157Z,2.80
2023-05-05T15:36:56.582Z,2.30
2023-05-05T15:42:04.067Z,1.87
2023-05-05T15:47:08.290Z,2.17
2023-05-05T15:52:14.179Z,2.07
2023-05-05T15:57:18.033Z,2.30
2023-05-05T16:02:21.800Z,1.97
2023-05-05T16:07:25.265Z,2.77
2023-05-05T16:12:28.573Z,2.23
2023-05-05T16:17:32.364Z,2.30
2023-05-05T16:22:35.770Z,2.87
2023-05-05T16:27:39.319Z,2.90
2023-05-05T16:32:42.928Z,2.43
2023-05-05T16:37:46.223Z,2.33
2023-05-05T16:42:49.630Z,2.43
2023-05-05T16:47:53.226Z,2.70
2023-05-05T16:52:56.452Z,3.03
2023-05-05T16:57:59.795Z,2.10
2023-05-05T17:03:03.137Z,2.63
2023-05-05T17:08:07.481Z,3.03
2023-05-05T17:13:12.008Z,2.40
2023-05-05T17:18:16.207Z,2.27
2023-05-05T17:23:21.620Z,2.93
2023-05-05T17:28:25.169Z,2.80
2023-05-05T17:33:28.913Z,2.10
2023-05-05T17:38:32.527Z,2.93
2023-05-05T17:43:35.888Z,3.30
2023-05-05T17:48:39.223Z,2.00
2023-05-05T17:53:42.522Z,2.30
2023-05-05T17:58:45.709Z,2.67
2023-05-05T18:03:49.604Z,2.60
2023-05-05T18:08:53.332Z,2.30
2023-05-05T18:13:56.841Z,2.80
2023-05-05T18:19:00.153Z,4.90
2023-05-05T18:24:15.893Z,2.20
2023-05-05T18:29:23.176Z,2.77
2023-05-05T18:34:26.738Z,2.33
2023-05-05T18:39:30.118Z,2.70
2023-05-05T18:44:35.153Z,3.23
2023-05-05T18:49:38.496Z,2.90
2023-05-05T18:54:41.874Z,2.57
2023-05-05T18:59:45.408Z,2.93
2023-05-05T19:04:48.631Z,2.47
2023-05-05T19:09:52.308Z,2.80
2023-05-05T19:14:55.648Z,3.37
2023-05-05T19:19:58.983Z,2.60
2023-05-05T19:25:02.344Z,2.40
2023-05-05T19:30:06.982Z,2.53
2023-05-05T19:35:12.723Z,2.97
2023-05-05T19:40:16.488Z,2.77
2023-05-05T19:45:20.540Z,2.87
2023-05-05T19:50:24.745Z,2.40
2023-05-05T19:55:28.778Z,2.73
2023-05-05T20:00:33.386Z,2.93
2023-05-05T20:05:39.698Z,2.40
2023-05-05T20:10:45.821Z,2.57
2023-05-05T20:15:50.432Z,2.87
2023-05-05T20:20:54.294Z,3.83
2023-05-05T20:25:57.825Z,3.40
2023-05-05T20:31:02.688Z,3.50
2023-05-05T20:36:07.206Z,3.60
2023-05-05T20:41:10.624Z,3.27
2023-05-05T20:46:14.046Z,4.10
2023-05-05T20:51:17.818Z,4.43
2023-05-05T20:56:21.534Z,4.73
2023-05-05T21:01:24.888Z,4.70
2023-05-05T21:06:28.257Z,4.40
2023-05-05T21:11:31.509Z,3.83
2023-05-05T21:16:34.865Z,4.10
2023-05-05T21:21:38.833Z,3.93
2023-05-05T21:26:45.623Z,5.10
2023-05-05T21:31:49.215Z,4.03
2023-05-05T21:36:52.452Z,4.20
2023-05-05T21:41:57.221Z,4.73
2023-05-05T21:47:00.671Z,4.40
2023-05-05T21:52:04.572Z,4.60
2023-05-05T21:57:07.887Z,4.33
2023-05-05T22:02:11.203Z,4.60
2023-05-05T22:07:14.674Z,4.50
2023-05-05T22:12:17.898Z,4.60
2023-05-05T22:17:21.130Z,4.20
2023-05-05T22:22:24.801Z,4.00
2023-05-05T22:27:28.318Z,4.77
2023-05-05T22:32:32.896Z,4.60
2023-05-05T22:37:36.258Z,4.50
2023-05-05T22:42:40.177Z,3.90
2023-05-05T22:47:44.517Z,4.00
2023-05-05T22:52:47.672Z,5.17
2023-05-05T22:57:52.919Z,5.10
2023-05-05T23:02:56.268Z,4.27
2023-05-05T23:08:01.652Z,5.30
2023-05-05T23:13:05.683Z,4.60
2023-05-05T23:18:09.020Z,4.40
2023-05-05T23:23:12.420Z,5.23
2023-05-05T23:28:15.735Z,5.23
2023-05-05T23:33:19.829Z,4.80
2023-05-05T23:38:23.095Z,4.63
2023-05-05T23:43:26.592Z,4.73
2023-05-05T23:48:30.156Z,4.73
2023-05-05T23:53:33.853Z,4.43
2023-05-05T23:58:37.138Z,3.93
